Time;durP1;ratioP1;P1;durP2;ratioP2;P2;SDS_P1;SDS_P2;PMS_P1;PMS_P2;Temp;Humidity;BMP_temperature;BMP_pressure;BME280_temperature;BME280_humidity;BME280_pressure;Samples;Min_cycle;Max_cycle;Signal;HPM_P1;HPM_P2
2024/02/10 00:00:19;;;;;;;11.85;8.48;;;8.30;72.20;;;;;;5095446;28;20197;-69
2024/02/10 00:02:48;;;;;;;10.35;7.05;;;8.30;73.00;;;;;;5095521;28;20184;-68
2024/02/10 00:05:16;;;;;;;13.00;8.48;;;8.30;72.50;;;;;;5095780;28;20197;-69
2024/02/10 00:07:45;;;;;;;17.50;9.63;;;8.20;72.40;;;;;;5095541;28;20285;-69
2024/02/10 00:10:13;;;;;;;10.05;7.18;;;8.20;72.00;;;;;;5114110;28;20195;-68
2024/02/10 00:12:41;;;;;;;13.48;8.48;;;8.10;72.50;;;;;;5103847;28;20225;-69
2024/02/10 00:15:14;;;;;;;12.48;7.45;;;8.10;73.50;;;;;;5095069;28;20229;-69
2024/02/10 00:17:48;;;;;;;12.52;7.07;;;8.10;74.10;;;;;;5095319;28;20178;-69
2024/02/10 00:20:20;;;;;;;14.57;9.27;;;8.20;74.30;;;;;;5094884;28;20192;-69
2024/02/10 00:22:51;;;;;;;8.45;7.55;;;8.20;73.90;;;;;;5106584;28;20769;-69
2024/02/10 00:25:21;;;;;;;11.52;6.70;;;8.10;74.00;;;;;;5100425;28;20219;-69
2024/02/10 00:27:50;;;;;;;8.82;7.03;;;8.10;74.10;;;;;;5095264;28;20182;-69
2024/02/10 00:30:17;;;;;;;14.25;7.10;;;8.10;73.90;;;;;;5095181;28;20189;-69
2024/02/10 00:32:51;;;;;;;9.85;7.32;;;8.10;73.80;;;;;;5095120;28;20229;-69
2024/02/10 00:35:22;;;;;;;10.63;6.18;;;8.10;73.10;;;;;;5094512;28;20185;-69
2024/02/10 00:37:56;;;;;;;9.45;6.43;;;8.10;73.20;;;;;;5095019;28;20185;-69
2024/02/10 00:40:23;;;;;;;10.20;6.97;;;8.20;72.80;;;;;;5094755;28;20275;-69
2024/02/10 00:42:52;;;;;;;9.02;6.85;;;8.10;72.60;;;;;;5094823;28;20237;-69
2024/02/10 00:45:22;;;;;;;9.13;6.40;;;8.00;72.80;;;;;;5094312;28;20235;-69
2024/02/10 00:47:55;;;;;;;8.25;5.78;;;8.00;73.20;;;;;;5094717;28;20178;-69
2024/02/10 00:50:24;;;;;;;9.32;6.50;;;7.90;73.60;;;;;;5094922;28;20173;-69
2024/02/10 00:52:51;;;;;;;9.40;6.43;;;7.90;73.80;;;;;;5094236;28;20209;-69
2024/02/10 00:55:18;;;;;;;8.85;6.85;;;7.90;74.20;;;;;;5094381;28;20204;-68
2024/02/10 00:57:47;;;;;;;8.50;6.57;;;7.90;73.60;;;;;;5094262;28;20280;-69
2024/02/10 01:00:21;;;;;;;7.28;5.70;;;7.90;73.40;;;;;;5094542;28;20276;-69
2024/02/10 01:02:49;;;;;;;9.70;6.68;;;7.90;73.40;;;;;;5093456;28;20208;-69
2024/02/10 01:05:18;;;;;;;7.93;5.43;;;7.90;73.80;;;;;;5094056;28;20189;-69
2024/02/10 01:07:47;;;;;;;11.13;6.10;;;7.90;73.70;;;;;;5094478;28;20276;-69
2024/02/10 01:10:15;;;;;;;7.85;5.80;;;7.80;73.40;;;;;;5094087;28;20246;-69
2024/02/10 01:12:44;;;;;;;9.88;5.93;;;7.80;73.40;;;;;;5093992;28;20185;-69
2024/02/10 01:15:11;;;;;;;10.80;5.53;;;7.80;72.90;;;;;;5093957;28;20240;-69
2024/02/10 01:17:42;;;;;;;7.68;5.35;;;7.70;72.60;;;;;;5093879;28;20225;-69
2024/02/10 01:20:12;;;;;;;9.13;6.07;;;7.70;72.60;;;;;;5094266;28;20216;-69
2024/02/10 01:22:46;;;;;;;7.75;6.00;;;7.60;73.10;;;;;;5093778;28;20213;-69
2024/02/10 01:25:18;;;;;;;8.10;6.25;;;7.60;73.20;;;;;;5093464;28;20177;-69
2024/02/10 01:27:46;;;;;;;9.10;6.80;;;7.60;73.60;;;;;;5094223;28;20260;-69
2024/02/10 01:30:17;;;;;;;7.57;5.78;;;7.60;73.60;;;;;;5094258;28;20230;-69
2024/02/10 01:32:44;;;;;;;7.68;6.10;;;7.50;73.50;;;;;;5093718;28;20216;-69
2024/02/10 01:35:11;;;;;;;8.63;5.82;;;7.50;73.30;;;;;;5093627;28;20189;-70
2024/02/10 01:37:39;;;;;;;6.20;4.50;;;7.50;73.20;;;;;;5093961;28;20491;-69
2024/02/10 01:40:11;;;;;;;7.85;5.82;;;7.50;73.50;;;;;;5093663;28;20185;-69
2024/02/10 01:42:44;;;;;;;8.15;5.75;;;7.50;73.70;;;;;;5096327;28;20285;-69
2024/02/10 01:45:13;;;;;;;8.05;5.85;;;7.50;73.50;;;;;;5103402;28;20250;-69
2024/02/10 01:47:42;;;;;;;12.70;7.57;;;7.50;72.80;;;;;;5093838;28;20548;-69
2024/02/10 01:50:13;;;;;;;9.95;7.40;;;7.50;72.50;;;;;;5093497;28;20225;-68
2024/02/10 01:52:41;;;;;;;8.20;6.60;;;7.50;72.70;;;;;;5093454;28;20617;-69
2024/02/10 01:55:11;;;;;;;8.02;6.05;;;7.50;73.10;;;;;;5093385;28;20589;-68
2024/02/10 01:57:40;;;;;;;9.88;5.85;;;7.50;73.50;;;;;;5093432;28;20193;-69
2024/02/10 02:00:13;;;;;;;7.53;5.43;;;7.50;73.10;;;;;;5093751;28;20233;-69
2024/02/10 02:02:41;;;;;;;9.68;5.25;;;7.50;72.60;;;;;;5093595;28;20201;-69
2024/02/10 02:05:08;;;;;;;7.32;5.13;;;7.50;72.60;;;;;;5093288;28;20270;-68
2024/02/10 02:07:35;;;;;;;7.80;6.50;;;7.40;72.80;;;;;;5093747;28;20281;-69
2024/02/10 02:10:09;;;;;;;7.07;5.50;;;7.40;74.10;;;;;;5093288;28;20194;-69
2024/02/10 02:12:46;;;;;;;8.38;6.30;;;7.40;74.80;;;;;;5093780;28;20264;-69
2024/02/10 02:15:13;;;;;;;7.78;4.53;;;7.40;74.90;;;;;;5095652;28;20192;-69
2024/02/10 02:17:40;;;;;;;9.50;6.13;;;7.40;74.90;;;;;;5097718;28;20224;-68
2024/02/10 02:20:09;;;;;;;8.90;5.70;;;7.40;75.20;;;;;;5097637;28;20213;-69
2024/02/10 02:22:36;;;;;;;8.10;5.40;;;7.40;75.40;;;;;;5096939;28;20224;-69
2024/02/10 02:25:05;;;;;;;7.63;5.43;;;7.40;75.20;;;;;;5096921;28;20203;-69
2024/02/10 02:27:34;;;;;;;11.02;5.85;;;7.40;75.20;;;;;;5077165;28;20217;-68
2024/02/10 02:30:06;;;;;;;8.63;6.10;;;7.40;74.70;;;;;;5096146;28;20185;-69
2024/02/10 02:32:34;;;;;;;9.88;5.80;;;7.50;74.00;;;;;;5100663;28;20190;-69
2024/02/10 02:35:08;;;;;;;7.90;5.43;;;7.40;74.30;;;;;;5096129;28;20192;-69
2024/02/10 02:37:36;;;;;;;8.63;5.47;;;7.50;74.90;;;;;;5101321;28;20226;-69
2024/02/10 02:40:13;;;;;;;8.95;6.22;;;7.50;74.80;;;;;;5117700;28;20196;-68
2024/02/10 02:42:40;;;;;;;8.60;6.30;;;7.50;74.70;;;;;;5117059;28;20254;-69
2024/02/10 02:45:12;;;;;;;12.25;6.75;;;7.50;74.50;;;;;;5108159;28;20268;-69
2024/02/10 02:47:39;;;;;;;9.35;5.43;;;7.50;74.90;;;;;;5096798;28;20178;-69
2024/02/10 02:50:09;;;;;;;8.68;6.32;;;7.50;75.00;;;;;;5097007;28;20185;-69
2024/02/10 02:52:36;;;;;;;7.70;6.10;;;7.50;74.90;;;;;;5096999;28;20603;-69
2024/02/10 02:55:10;;;;;;;9.48;6.45;;;7.50;74.80;;;;;;5097258;28;20190;-69
2024/02/10 02:57:39;;;;;;;10.82;5.63;;;7.60;75.50;;;;;;5097054;28;20178;-68
2024/02/10 03:00:09;;;;;;;8.98;6.80;;;7.60;75.50;;;;;;5096517;28;20189;-69
2024/02/10 03:02:40;;;;;;;8.77;6.00;;;7.60;75.80;;;;;;5096511;28;20193;-69
2024/02/10 03:05:10;;;;;;;10.32;6.18;;;7.50;76.10;;;;;;5096654;28;20178;-69
2024/02/10 03:07:44;;;;;;;8.38;6.53;;;7.50;76.50;;;;;;5096752;28;20196;-69
2024/02/10 03:10:13;;;;;;;9.65;6.22;;;7.60;77.10;;;;;;5096820;28;20185;-69
2024/02/10 03:12:43;;;;;;;9.57;7.20;;;7.60;77.30;;;;;;5108603;28;20246;-69
2024/02/10 03:15:12;;;;;;;10.15;6.95;;;7.70;77.60;;;;;;5116611;28;20231;-69
2024/02/10 03:17:41;;;;;;;7.47;5.97;;;7.70;77.10;;;;;;5116878;28;20192;-69
2024/02/10 03:20:21;;;;;;;11.60;6.43;;;7.70;76.90;;;;;;5116535;28;20654;-69
2024/02/10 03:22:53;;;;;;;8.80;6.85;;;7.70;76.70;;;;;;5116230;28;20269;-69
2024/02/10 03:25:22;;;;;;;6.20;5.25;;;7.60;76.10;;;;;;5116665;27;20181;-69
2024/02/10 03:27:54;;;;;;;9.60;6.05;;;7.60;75.80;;;;;;5115759;28;20232;-69
2024/02/10 03:30:29;;;;;;;9.70;5.63;;;7.60;75.80;;;;;;5116377;28;20213;-69
2024/02/10 03:33:01;;;;;;;7.15;5.78;;;7.60;75.80;;;;;;5102639;28;20213;-69
2024/02/10 03:35:33;;;;;;;8.80;5.90;;;7.70;76.00;;;;;;5096336;28;20276;-69
2024/02/10 03:38:07;;;;;;;7.80;5.55;;;7.60;75.70;;;;;;5095852;28;20213;-69
2024/02/10 03:40:36;;;;;;;6.00;4.75;;;7.70;75.50;;;;;;5095830;28;20224;-69
2024/02/10 03:43:05;;;;;;;9.48;6.05;;;7.60;74.90;;;;;;5095931;28;20637;-69
2024/02/10 03:45:37;;;;;;;8.18;4.45;;;7.60;75.20;;;;;;5095694;28;20225;-68
2024/02/10 03:48:12;;;;;;;7.18;5.22;;;7.50;75.10;;;;;;5095690;28;20578;-68
2024/02/10 03:50:39;;;;;;;8.77;5.20;;;7.50;75.30;;;;;;5102730;28;20687;-68
2024/02/10 03:53:12;;;;;;;8.48;6.30;;;7.50;74.90;;;;;;5115738;28;20243;-69
2024/02/10 03:55:45;;;;;;;6.50;4.70;;;7.40;74.00;;;;;;5116181;28;20220;-69
2024/02/10 03:58:16;;;;;;;8.77;5.32;;;7.30;74.10;;;;;;5109582;28;20174;-69
2024/02/10 04:00:47;;;;;;;7.95;4.80;;;7.40;74.50;;;;;;5095728;28;20197;-69
2024/02/10 04:03:17;;;;;;;6.30;4.70;;;7.40;74.20;;;;;;5095624;28;20263;-69
2024/02/10 04:05:46;;;;;;;9.18;6.30;;;7.30;74.10;;;;;;5095693;28;20610;-68
2024/02/10 04:08:22;;;;;;;7.38;5.15;;;7.30;74.10;;;;;;5095545;28;20277;-69
2024/02/10 04:10:50;;;;;;;7.53;4.82;;;7.20;74.70;;;;;;5095534;28;20185;-69
2024/02/10 04:13:17;;;;;;;7.10;4.95;;;7.20;75.00;;;;;;5094988;28;20194;-68
2024/02/10 04:15:46;;;;;;;9.40;6.30;;;7.20;75.50;;;;;;5095437;28;20330;-69
2024/02/10 04:18:18;;;;;;;7.45;5.20;;;7.20;75.50;;;;;;5095373;28;20220;-69
2024/02/10 04:20:50;;;;;;;19.35;11.10;;;7.20;74.60;;;;;;5095110;28;20235;-69
2024/02/10 04:23:18;;;;;;;26.48;12.98;;;7.30;74.60;;;;;;5095146;28;20292;-69
2024/02/10 04:25:51;;;;;;;17.92;8.48;;;7.20;74.90;;;;;;5094974;28;20224;-69
2024/02/10 04:28:26;;;;;;;12.48;7.68;;;7.20;75.10;;;;;;5094872;28;20651;-69
2024/02/10 04:30:58;;;;;;;11.63;7.75;;;7.20;76.40;;;;;;5094580;28;20204;-69
2024/02/10 04:33:25;;;;;;;11.50;6.72;;;7.20;76.00;;;;;;5094812;28;20231;-69
2024/02/10 04:36:03;;;;;;;12.15;7.70;;;7.20;75.90;;;;;;5094668;28;20186;-69
2024/02/10 04:38:32;;;;;;;11.25;7.57;;;7.20;76.20;;;;;;5094634;28;20641;-69
2024/02/10 04:41:04;;;;;;;15.80;9.55;;;7.10;76.40;;;;;;5094583;28;20308;-69
2024/02/10 04:43:35;;;;;;;20.33;11.07;;;7.20;76.80;;;;;;5093709;28;20281;-69
2024/02/10 04:46:08;;;;;;;23.73;15.00;;;7.20;77.50;;;;;;5093816;28;20182;-68
2024/02/10 04:48:40;;;;;;;30.27;14.50;;;7.20;77.70;;;;;;5094616;28;20632;-69
2024/02/10 04:51:07;;;;;;;21.08;12.30;;;7.20;78.10;;;;;;5094994;28;20585;-69
2024/02/10 04:53:34;;;;;;;9.35;7.45;;;7.30;78.40;;;;;;5094619;28;20220;-69
2024/02/10 04:56:07;;;;;;;14.85;8.48;;;7.40;77.60;;;;;;5093868;28;20185;-69
2024/02/10 04:58:36;;;;;;;8.38;6.45;;;7.40;77.20;;;;;;5094492;28;20209;-69
2024/02/10 05:01:05;;;;;;;8.85;6.43;;;7.40;77.50;;;;;;5094524;28;20272;-69
2024/02/10 05:03:35;;;;;;;9.52;5.90;;;7.40;77.10;;;;;;5094108;28;20263;-69
2024/02/10 05:06:07;;;;;;;11.45;6.13;;;7.40;76.70;;;;;;5094212;28;20276;-69
2024/02/10 05:08:39;;;;;;;8.18;5.45;;;7.40;77.00;;;;;;5094548;28;20205;-69
2024/02/10 05:11:07;;;;;;;5.68;5.00;;;7.50;77.40;;;;;;5094115;28;20240;-69
2024/02/10 05:13:35;;;;;;;6.55;5.32;;;7.40;77.10;;;;;;5094025;28;20254;-68
2024/02/10 05:16:02;;;;;;;8.27;5.95;;;7.40;77.70;;;;;;5093896;28;20200;-69
2024/02/10 05:18:37;;;;;;;6.97;6.13;;;7.40;78.10;;;;;;5093986;28;20735;-69
2024/02/10 05:21:05;;;;;;;12.63;7.05;;;7.50;78.30;;;;;;5094447;28;20216;-68
2024/02/10 05:23:35;;;;;;;9.75;7.20;;;7.50;78.30;;;;;;5093695;28;20210;-68
2024/02/10 05:26:04;;;;;;;9.45;8.20;;;7.50;78.30;;;;;;5093816;28;20193;-68
2024/02/10 05:28:32;;;;;;;12.10;6.93;;;7.50;78.20;;;;;;5094044;28;20185;-68
2024/02/10 05:31:11;;;;;;;8.18;5.95;;;7.40;78.20;;;;;;5093696;28;20256;-68
2024/02/10 05:33:42;;;;;;;10.40;6.63;;;7.40;78.80;;;;;;5093567;28;20177;-68
2024/02/10 05:36:12;;;;;;;8.85;6.80;;;7.40;79.00;;;;;;5093824;28;20181;-68
2024/02/10 05:38:39;;;;;;;7.80;5.78;;;7.40;78.40;;;;;;5094016;28;20251;-68
2024/02/10 05:41:11;;;;;;;12.85;6.75;;;7.40;78.50;;;;;;5093702;28;20271;-68
2024/02/10 05:43:39;;;;;;;8.45;6.05;;;7.30;78.90;;;;;;5093757;28;20280;-70
2024/02/10 05:46:09;;;;;;;10.30;6.97;;;7.30;79.10;;;;;;5093494;28;20193;-68
2024/02/10 05:48:36;;;;;;;12.02;7.38;;;7.30;79.40;;;;;;5093629;28;20195;-68
2024/02/10 05:51:17;;;;;;;10.95;6.70;;;7.40;80.10;;;;;;5093718;28;20193;-68
2024/02/10 05:53:51;;;;;;;13.02;7.93;;;7.40;79.80;;;;;;5106639;28;20173;-68
2024/02/10 05:56:20;;;;;;;11.18;8.68;;;7.40;79.20;;;;;;5092761;28;20660;-68
2024/02/10 05:58:49;;;;;;;16.42;10.13;;;7.40;79.20;;;;;;5093089;28;20266;-68
2024/02/10 06:01:21;;;;;;;14.38;10.82;;;7.40;78.80;;;;;;5093098;28;20225;-68
2024/02/10 06:03:54;;;;;;;11.55;9.23;;;7.40;78.80;;;;;;5093105;28;20229;-68
2024/02/10 06:06:23;;;;;;;13.13;9.43;;;7.40;78.40;;;;;;5092927;28;20227;-68
2024/02/10 06:08:50;;;;;;;21.65;10.35;;;7.30;78.30;;;;;;5092920;28;20226;-69
2024/02/10 06:11:18;;;;;;;13.23;9.32;;;7.30;78.60;;;;;;5092856;28;20189;-68
2024/02/10 06:13:52;;;;;;;16.58;9.85;;;7.30;78.70;;;;;;5092510;28;20178;-68
2024/02/10 06:16:21;;;;;;;19.15;11.10;;;7.20;78.90;;;;;;5092690;28;20355;-68
2024/02/10 06:18:50;;;;;;;22.33;12.38;;;7.20;79.40;;;;;;5093273;28;20238;-68
2024/02/10 06:21:21;;;;;;;17.05;11.63;;;7.20;79.60;;;;;;5093031;28;20276;-68
2024/02/10 06:23:54;;;;;;;13.82;10.27;;;7.20;79.90;;;;;;5092217;28;20233;-68
2024/02/10 06:26:23;;;;;;;16.15;10.45;;;7.20;80.30;;;;;;5093044;28;20262;-68
2024/02/10 06:28:50;;;;;;;14.48;8.15;;;7.20;80.20;;;;;;5105380;28;20189;-68
2024/02/10 06:31:18;;;;;;;12.45;7.15;;;7.30;79.60;;;;;;5100326;28;20221;-68
2024/02/10 06:33:54;;;;;;;13.43;7.90;;;7.20;78.50;;;;;;5092654;28;20606;-68
2024/02/10 06:36:25;;;;;;;11.65;7.50;;;7.20;78.60;;;;;;5092598;28;20230;-68
2024/02/10 06:39:01;;;;;;;10.00;8.07;;;7.10;78.80;;;;;;5092100;28;20255;-68
2024/02/10 06:41:30;;;;;;;9.52;6.85;;;7.20;79.20;;;;;;5092387;28;20322;-68
2024/02/10 06:43:58;;;;;;;14.90;6.13;;;7.20;79.10;;;;;;5092234;28;20653;-68
2024/02/10 06:46:26;;;;;;;9.18;5.90;;;7.10;79.20;;;;;;5091193;28;20213;-68
2024/02/10 06:48:56;;;;;;;12.10;7.30;;;7.20;79.60;;;;;;5092516;28;20276;-68
2024/02/10 06:51:23;;;;;;;9.43;7.20;;;7.10;79.60;;;;;;5092322;28;20193;-68
2024/02/10 06:53:58;;;;;;;10.40;8.70;;;7.20;80.20;;;;;;5091438;28;20224;-68
2024/02/10 06:56:30;;;;;;;13.77;7.38;;;7.20;79.90;;;;;;5092333;28;20247;-68
2024/02/10 06:59:00;;;;;;;8.15;6.45;;;7.20;80.00;;;;;;5091926;28;20647;-68
2024/02/10 07:01:34;;;;;;;8.00;6.38;;;7.20;80.30;;;;;;5093425;28;20513;-68
2024/02/10 07:04:06;;;;;;;9.98;6.25;;;7.30;80.00;;;;;;5095997;28;20205;-68
2024/02/10 07:06:40;;;;;;;10.68;6.38;;;7.20;79.20;;;;;;5095292;28;20178;-68
2024/02/10 07:09:13;;;;;;;9.82;7.18;;;7.30;78.80;;;;;;5095887;28;20213;-68
2024/02/10 07:11:41;;;;;;;11.00;7.13;;;7.30;78.40;;;;;;5095269;28;20295;-68
2024/02/10 07:14:10;;;;;;;9.38;8.30;;;7.30;77.90;;;;;;5095150;28;20263;-68
2024/02/10 07:16:44;;;;;;;8.68;6.43;;;7.30;78.10;;;;;;5096036;28;20185;-68
2024/02/10 07:19:11;;;;;;;9.95;6.55;;;7.40;78.30;;;;;;5095421;28;20740;-68
2024/02/10 07:21:45;;;;;;;7.93;6.50;;;7.40;77.60;;;;;;5095231;28;20709;-68
2024/02/10 07:24:13;;;;;;;8.90;7.28;;;7.40;77.70;;;;;;5095717;28;20213;-68
2024/02/10 07:26:42;;;;;;;10.50;7.03;;;7.40;77.60;;;;;;5095234;28;20552;-68
2024/02/10 07:29:20;;;;;;;9.43;7.38;;;7.40;77.20;;;;;;5095483;28;20225;-69
2024/02/10 07:31:48;;;;;;;8.55;6.50;;;7.40;77.00;;;;;;5095134;28;20213;-68
2024/02/10 07:34:18;;;;;;;12.95;7.90;;;7.40;77.30;;;;;;5095661;28;20197;-68
2024/02/10 07:36:55;;;;;;;9.07;6.32;;;7.40;77.10;;;;;;5094942;28;20189;-68
2024/02/10 07:39:25;;;;;;;8.65;6.22;;;7.40;78.00;;;;;;5095301;28;20192;-68
2024/02/10 07:42:05;;;;;;;7.93;7.13;;;7.30;78.60;;;;;;5095223;28;20279;-68
2024/02/10 07:44:32;;;;;;;11.43;7.55;;;7.40;79.50;;;;;;5095074;28;20209;-68
2024/02/10 07:47:00;;;;;;;8.85;6.57;;;7.40;79.80;;;;;;5094563;28;20251;-68
2024/02/10 07:49:27;;;;;;;9.20;6.93;;;7.40;80.00;;;;;;5108473;28;20237;-69
2024/02/10 07:52:02;;;;;;;8.95;6.40;;;7.40;80.40;;;;;;5115119;28;20625;-69
2024/02/10 07:54:33;;;;;;;9.82;7.50;;;7.50;80.60;;;;;;5114989;28;20240;-69
2024/02/10 07:57:01;;;;;;;11.05;8.13;;;7.60;80.80;;;;;;5115432;27;20184;-69
2024/02/10 07:59:29;;;;;;;10.65;8.32;;;7.60;81.00;;;;;;5097190;28;20239;-69
2024/02/10 08:01:56;;;;;;;11.70;8.63;;;7.60;80.60;;;;;;5094765;28;20220;-69
2024/02/10 08:04:24;;;;;;;9.75;7.60;;;7.70;80.60;;;;;;5094842;28;20213;-69
2024/02/10 08:06:52;;;;;;;10.45;7.95;;;7.80;80.30;;;;;;5094759;28;20189;-69
2024/02/10 08:09:20;;;;;;;11.23;9.48;;;7.80;79.80;;;;;;5094655;28;20197;-69
2024/02/10 08:11:47;;;;;;;11.15;8.55;;;7.80;79.50;;;;;;5094010;28;20716;-69
2024/02/10 08:14:17;;;;;;;8.88;7.75;;;7.80;79.30;;;;;;5094268;28;20246;-69
2024/02/10 08:16:49;;;;;;;15.95;8.20;;;7.90;79.70;;;;;;5094798;28;20204;-69
2024/02/10 08:19:20;;;;;;;11.27;8.88;;;7.90;79.80;;;;;;5094179;28;20269;-69
2024/02/10 08:21:48;;;;;;;9.18;8.20;;;8.00;80.00;;;;;;5094572;28;20178;-69
2024/02/10 08:24:15;;;;;;;11.38;8.55;;;8.00;79.70;;;;;;5094238;28;20282;-69
2024/02/10 08:26:42;;;;;;;11.10;8.18;;;8.10;79.60;;;;;;5094122;28;20197;-69
2024/02/10 08:29:19;;;;;;;9.15;7.18;;;8.10;79.50;;;;;;5094369;28;20655;-68
2024/02/10 08:31:46;;;;;;;8.32;6.05;;;8.10;79.70;;;;;;5094164;28;20506;-68
2024/02/10 08:34:13;;;;;;;8.07;5.53;;;8.20;79.60;;;;;;5093772;28;20201;-68
2024/02/10 08:36:40;;;;;;;8.32;6.60;;;8.20;79.60;;;;;;5092431;28;20190;-68
2024/02/10 08:39:15;;;;;;;13.80;6.90;;;8.20;79.50;;;;;;5092480;28;20186;-68
2024/02/10 08:41:42;;;;;;;10.55;7.53;;;8.20;79.40;;;;;;5093901;28;20217;-68
2024/02/10 08:44:09;;;;;;;11.10;6.65;;;8.20;79.20;;;;;;5093698;28;20246;-67
2024/02/10 08:46:37;;;;;;;8.18;6.70;;;8.30;79.70;;;;;;5093471;28;20675;-67
2024/02/10 08:49:04;;;;;;;8.38;6.45;;;8.30;79.60;;;;;;5093934;28;20219;-68
2024/02/10 08:51:31;;;;;;;9.45;6.47;;;8.30;79.20;;;;;;5108764;28;20568;-69
2024/02/10 08:53:58;;;;;;;7.80;6.88;;;8.30;79.50;;;;;;5114251;28;20594;-69
2024/02/10 08:56:29;;;;;;;6.85;6.07;;;8.30;79.80;;;;;;5113885;28;20647;-68
2024/02/10 08:58:58;;;;;;;16.70;7.35;;;8.30;80.10;;;;;;5107087;28;20631;-68
2024/02/10 09:01:30;;;;;;;10.25;6.90;;;8.30;80.30;;;;;;5093581;28;20669;-68
2024/02/10 09:04:03;;;;;;;8.82;7.00;;;8.30;80.20;;;;;;5093844;28;20598;-69
2024/02/10 09:06:31;;;;;;;24.85;20.27;;;8.40;80.30;;;;;;5093681;28;20205;-68
2024/02/10 09:08:58;;;;;;;10.38;8.05;;;8.40;80.30;;;;;;5093778;28;20217;-67
2024/02/10 09:11:41;;;;;;;10.82;6.10;;;8.40;80.00;;;;;;5092869;28;20228;-69
2024/02/10 09:14:08;;;;;;;7.30;5.60;;;8.40;80.30;;;;;;5093043;28;20268;-69
2024/02/10 09:16:35;;;;;;;9.52;6.45;;;8.40;80.50;;;;;;5093487;28;20197;-69
2024/02/10 09:19:02;;;;;;;8.43;6.50;;;8.40;80.30;;;;;;5093103;28;20268;-69
2024/02/10 09:21:29;;;;;;;16.73;11.38;;;8.50;80.20;;;;;;5092855;28;20719;-69
2024/02/10 09:23:58;;;;;;;11.55;8.38;;;8.60;80.20;;;;;;5092276;28;20197;-68
2024/02/10 09:26:27;;;;;;;11.15;9.52;;;8.60;79.80;;;;;;5093256;28;20210;-68
2024/02/10 09:28:54;;;;;;;10.82;8.88;;;8.60;80.10;;;;;;5092787;28;20232;-69
2024/02/10 09:31:23;;;;;;;9.77;8.60;;;8.70;79.90;;;;;;5092893;28;20200;-68
2024/02/10 09:33:50;;;;;;;12.48;10.20;;;8.60;79.80;;;;;;5092941;28;20201;-68
2024/02/10 09:36:18;;;;;;;10.50;7.95;;;8.60;80.10;;;;;;5093180;28;20276;-68
2024/02/10 09:38:45;;;;;;;12.73;8.45;;;8.70;80.60;;;;;;5093147;28;20276;-68
2024/02/10 09:41:13;;;;;;;12.38;8.70;;;8.70;80.50;;;;;;5089323;28;20283;-69
2024/02/10 09:43:44;;;;;;;12.30;8.45;;;8.70;80.40;;;;;;5093075;28;20197;-69
2024/02/10 09:46:13;;;;;;;10.40;8.65;;;8.70;80.50;;;;;;5092721;28;20227;-69
2024/02/10 09:48:44;;;;;;;10.82;8.43;;;8.70;80.30;;;;;;5092952;28;20225;-69
2024/02/10 09:51:13;;;;;;;11.85;9.23;;;8.70;80.30;;;;;;5093146;28;20601;-68
2024/02/10 09:53:45;;;;;;;9.43;6.72;;;8.80;81.50;;;;;;5092750;28;20197;-69
2024/02/10 09:56:13;;;;;;;10.95;8.38;;;8.80;80.70;;;;;;5092982;28;20220;-68
2024/02/10 09:58:46;;;;;;;12.15;8.27;;;8.90;80.40;;;;;;5093060;28;20225;-68
2024/02/10 10:01:14;;;;;;;8.48;6.53;;;8.90;80.50;;;;;;5092076;28;20216;-68
2024/02/10 10:03:41;;;;;;;18.90;11.02;;;9.00;80.80;;;;;;5092604;28;20219;-69
2024/02/10 10:06:14;;;;;;;16.02;9.95;;;9.10;80.60;;;;;;5092886;28;20205;-68
2024/02/10 10:08:41;;;;;;;13.85;9.68;;;9.20;80.70;;;;;;5092704;28;20197;-68
2024/02/10 10:11:09;;;;;;;15.30;8.68;;;9.20;80.80;;;;;;5092734;28;20197;-68
2024/02/10 10:13:37;;;;;;;12.38;7.60;;;9.30;80.80;;;;;;5092437;28;20338;-68
2024/02/10 10:16:09;;;;;;;15.30;8.57;;;9.40;80.90;;;;;;5092581;28;20197;-68
2024/02/10 10:18:39;;;;;;;9.98;6.80;;;9.40;81.10;;;;;;5092357;28;20655;-68
2024/02/10 10:21:13;;;;;;;16.20;7.07;;;9.50;81.30;;;;;;5092143;28;20236;-68
2024/02/10 10:23:40;;;;;;;9.38;6.50;;;9.50;80.90;;;;;;5091543;28;20200;-69
2024/02/10 10:26:09;;;;;;;15.68;9.25;;;9.60;80.70;;;;;;5092762;28;20304;-68
2024/02/10 10:28:41;;;;;;;11.93;8.43;;;9.60;80.40;;;;;;5086153;28;20233;-69
2024/02/10 10:31:10;;;;;;;10.45;8.65;;;9.70;80.60;;;;;;5089701;28;20580;-69
2024/02/10 10:33:39;;;;;;;10.32;8.50;;;9.70;80.60;;;;;;5071511;28;20238;-69
2024/02/10 10:36:08;;;;;;;11.55;9.30;;;9.70;80.60;;;;;;5094308;28;20288;-68
2024/02/10 10:38:42;;;;;;;14.70;7.95;;;9.80;80.40;;;;;;5096084;28;20615;-69
2024/02/10 10:41:18;;;;;;;21.10;19.17;;;9.80;80.30;;;;;;5095345;28;20228;-68
2024/02/10 10:43:46;;;;;;;14.07;9.88;;;9.90;80.30;;;;;;5096036;28;20551;-68
2024/02/10 10:46:16;;;;;;;10.27;7.93;;;9.90;80.30;;;;;;5095832;28;20218;-68
2024/02/10 10:48:44;;;;;;;12.30;7.25;;;9.90;80.20;;;;;;5095852;28;20190;-69
2024/02/10 10:51:13;;;;;;;10.10;7.45;;;9.90;80.30;;;;;;5095388;28;20186;-68
2024/02/10 10:53:45;;;;;;;9.68;5.63;;;10.00;79.10;;;;;;5096544;28;20188;-69
2024/02/10 10:56:15;;;;;;;10.55;6.22;;;10.00;78.60;;;;;;5096379;28;20526;-69
2024/02/10 10:58:47;;;;;;;9.23;6.78;;;10.00;78.40;;;;;;5095974;28;20239;-69
2024/02/10 11:01:20;;;;;;;9.23;5.85;;;10.00;78.40;;;;;;5095616;28;20265;-69
2024/02/10 11:03:48;;;;;;;8.82;5.97;;;10.00;78.30;;;;;;5093012;28;20616;-69
2024/02/10 11:06:22;;;;;;;8.02;5.95;;;10.10;78.20;;;;;;5095396;28;20303;-69
2024/02/10 11:08:54;;;;;;;7.38;5.80;;;10.10;77.60;;;;;;5095650;28;20267;-69
2024/02/10 11:11:21;;;;;;;9.23;6.75;;;10.10;77.40;;;;;;5095601;28;20178;-68
2024/02/10 11:13:48;;;;;;;9.13;6.63;;;10.10;77.30;;;;;;5094755;28;20228;-69
2024/02/10 11:16:17;;;;;;;14.98;10.50;;;10.10;77.20;;;;;;5094900;28;20213;-68
2024/02/10 11:18:46;;;;;;;14.75;8.38;;;10.10;77.10;;;;;;5093146;28;20683;-69
2024/02/10 11:21:18;;;;;;;15.30;10.35;;;10.10;77.00;;;;;;5095410;28;20196;-69
2024/02/10 11:23:57;;;;;;;12.73;8.13;;;10.20;76.40;;;;;;5095116;28;20187;-69
2024/02/10 11:26:27;;;;;;;107.65;51.08;;;10.20;76.00;;;;;;5094035;28;20292;-68
2024/02/10 11:29:01;;;;;;;36.88;19.10;;;10.20;74.90;;;;;;5095519;28;20297;-69
2024/02/10 11:31:29;;;;;;;35.53;13.90;;;10.30;74.80;;;;;;5095076;28;20189;-69
2024/02/10 11:34:04;;;;;;;19.05;12.20;;;10.30;74.60;;;;;;5095517;28;20590;-69
2024/02/10 11:36:32;;;;;;;13.20;8.82;;;10.30;75.10;;;;;;5095276;28;20180;-69
2024/02/10 11:38:59;;;;;;;8.52;6.90;;;10.30;75.60;;;;;;5095184;28;20608;-69
2024/02/10 11:41:27;;;;;;;10.68;7.30;;;10.40;76.10;;;;;;5094896;28;20248;-69
2024/02/10 11:43:55;;;;;;;9.00;6.30;;;10.50;76.60;;;;;;5094700;28;20197;-69
2024/02/10 11:46:22;;;;;;;9.40;6.10;;;10.50;77.00;;;;;;5091436;28;20248;-69
2024/02/10 11:48:53;;;;;;;9.30;5.43;;;10.70;77.40;;;;;;5094101;28;20194;-70
2024/02/10 11:51:22;;;;;;;10.27;5.47;;;10.80;77.00;;;;;;5115165;28;20215;-69
2024/02/10 11:53:50;;;;;;;7.32;5.00;;;10.90;76.80;;;;;;5113488;28;20544;-70
2024/02/10 11:56:17;;;;;;;8.02;5.13;;;10.90;76.80;;;;;;5110989;28;20187;-69
2024/02/10 11:58:45;;;;;;;9.82;6.10;;;11.00;77.00;;;;;;5093885;28;20185;-69
2024/02/10 12:01:13;;;;;;;9.50;7.67;;;11.10;77.20;;;;;;5094258;28;20193;-69
2024/02/10 12:03:44;;;;;;;15.03;7.77;;;11.20;77.00;;;;;;5094263;28;20544;-69
2024/02/10 12:06:13;;;;;;;10.68;7.38;;;11.50;77.40;;;;;;5090104;28;20581;-70
2024/02/10 12:08:42;;;;;;;12.23;6.90;;;11.80;77.10;;;;;;5090889;28;20186;-69
2024/02/10 12:11:10;;;;;;;7.80;5.50;;;12.10;75.90;;;;;;5093899;28;20438;-69
2024/02/10 12:13:38;;;;;;;8.70;5.43;;;12.30;74.30;;;;;;5093570;28;20531;-69
2024/02/10 12:16:10;;;;;;;8.80;6.00;;;12.40;73.20;;;;;;5080841;28;20447;-70
2024/02/10 12:18:46;;;;;;;8.03;5.77;;;12.50;72.50;;;;;;5088397;28;20431;-69
2024/02/10 12:21:26;;;;;;;9.27;5.60;;;12.60;71.00;;;;;;5084011;28;20897;-67
2024/02/10 12:23:56;;;;;;;11.30;5.43;;;12.80;70.20;;;;;;5090731;28;20513;-69
2024/02/10 12:26:23;;;;;;;8.30;5.53;;;12.90;70.60;;;;;;5101484;28;20470;-69
2024/02/10 12:28:53;;;;;;;8.00;5.40;;;13.10;70.10;;;;;;5093647;28;20803;-69
2024/02/10 12:31:21;;;;;;;7.00;5.30;;;13.20;69.20;;;;;;5093887;28;20441;-69
2024/02/10 12:33:50;;;;;;;8.80;6.40;;;13.30;69.00;;;;;;5093886;28;20431;-70
2024/02/10 12:36:20;;;;;;;7.60;5.27;;;13.30;68.30;;;;;;5093114;28;20439;-69
2024/02/10 12:38:47;;;;;;;11.50;4.53;;;13.30;68.30;;;;;;5093564;28;20831;-69
2024/02/10 12:41:16;;;;;;;8.93;5.90;;;13.40;68.20;;;;;;5092882;28;20483;-69
2024/02/10 12:43:43;;;;;;;8.37;5.40;;;13.40;67.80;;;;;;5093718;28;20441;-69
2024/02/10 12:46:11;;;;;;;6.83;4.70;;;13.40;67.40;;;;;;5093019;28;20558;-69
2024/02/10 12:48:40;;;;;;;9.03;7.00;;;13.50;67.00;;;;;;5093126;28;20512;-69
2024/02/10 12:51:08;;;;;;;7.97;6.03;;;13.50;66.20;;;;;;5093257;28;20462;-69
2024/02/10 12:53:42;;;;;;;9.77;6.37;;;13.50;65.80;;;;;;5093343;28;20445;-70
2024/02/10 12:56:17;;;;;;;7.37;5.40;;;13.60;66.00;;;;;;5092975;28;20517;-68
2024/02/10 12:58:44;;;;;;;9.00;6.20;;;13.60;65.40;;;;;;5091815;28;20428;-68
2024/02/10 13:01:11;;;;;;;7.37;6.07;;;13.60;65.00;;;;;;5092793;28;20453;-69
2024/02/10 13:03:38;;;;;;;5.60;4.67;;;13.60;65.40;;;;;;5091650;28;20435;-68